Time;durP1;ratioP1;P1;durP2;ratioP2;P2;SDS_P1;SDS_P2;PMS_P1;PMS_P2;Temp;Humidity;BMP_temperature;BMP_pressure;BME280_temperature;BME280_humidity;BME280_pressure;Samples;Min_cycle;Max_cycle;Signal;HPM_P1;HPM_P2
2022/11/29 00:03:21;;;;;;;20.07;17.97;;;;;10.40;98594.00;;;;16574394;28;20231;-48
2022/11/29 00:19:46;;;;;;;22.00;19.80;;;;;10.60;98587.00;;;;16584217;28;20205;-47
2022/11/29 00:27:51;;;;;;;21.83;19.47;;;;;10.80;98584.00;;;;16589895;28;20726;-48
2022/11/29 00:35:53;;;;;;;21.20;19.00;;;;;11.30;98587.00;;;;16569857;28;20239;-49
2022/11/29 00:43:57;;;;;;;33.97;25.50;;;;;10.60;98589.00;;;;16590213;28;20762;-48
2022/11/29 00:52:00;;;;;;;21.43;19.23;;;;;10.40;98590.00;;;;16602056;28;20219;-49
2022/11/29 01:00:06;;;;;;;22.80;18.87;;;;;11.00;98587.00;;;;16590578;28;20214;-47
2022/11/29 01:08:09;;;;;;;20.10;18.07;;;;;10.80;98592.00;;;;16593119;28;20273;-49
2022/11/29 01:16:14;;;;;;;20.90;18.80;;;;;11.20;98596.00;;;;16592343;28;20223;-48
2022/11/29 01:24:16;;;;;;;20.43;18.30;;;;;11.30;98593.00;;;;16594096;28;20231;-48
2022/11/29 01:32:20;;;;;;;19.37;17.47;;;;;11.50;98600.00;;;;16586342;28;20253;-47
2022/11/29 01:40:22;;;;;;;18.67;16.80;;;;;11.10;98601.00;;;;16589028;28;20200;-49
2022/11/29 01:48:28;;;;;;;17.73;16.00;;;;;11.30;98601.00;;;;16591810;28;20804;-47
2022/11/29 01:56:32;;;;;;;17.40;15.70;;;;;11.10;98597.00;;;;16598325;28;20601;-48
2022/11/29 02:04:36;;;;;;;19.70;17.67;;;;;11.30;98594.00;;;;16589695;28;20258;-48
2022/11/29 02:12:51;;;;;;;18.87;16.90;;;;;11.50;98587.00;;;;16588822;28;20223;-49
2022/11/29 02:21:11;;;;;;;19.40;17.60;;;;;11.50;98589.00;;;;16601481;28;20656;-48
2022/11/29 02:29:45;;;;;;;19.80;17.90;;;;;11.30;98589.00;;;;16598885;28;20231;-48
2022/11/29 02:38:18;;;;;;;16.87;15.27;;;;;11.20;98599.00;;;;16580923;28;20230;-48
2022/11/29 02:46:42;;;;;;;17.40;15.80;;;;;10.60;98601.00;;;;16590758;28;20836;-48
2022/11/29 02:54:50;;;;;;;18.60;16.90;;;;;10.50;98604.00;;;;16601331;28;20222;-48
2022/11/29 03:02:58;;;;;;;18.03;16.17;;;;;10.70;98609.00;;;;16585866;28;20223;-49
2022/11/29 03:11:07;;;;;;;17.47;15.67;;;;;10.90;98609.00;;;;16584079;28;20255;-49
2022/11/29 03:19:39;;;;;;;18.57;16.67;;;;;10.70;98623.00;;;;16586951;28;20612;-47
2022/11/29 03:27:50;;;;;;;16.67;14.87;;;;;10.70;98620.00;;;;16583691;28;20314;-48
2022/11/29 03:35:57;;;;;;;17.33;15.40;;;;;10.30;98629.00;;;;16581207;28;20227;-49
2022/11/29 03:44:07;;;;;;;18.00;16.00;;;;;10.50;98624.00;;;;16584412;28;20610;-48
2022/11/29 03:52:15;;;;;;;17.47;14.97;;;;;10.50;98628.00;;;;16592695;28;20276;-48
2022/11/29 04:00:20;;;;;;;17.97;15.40;;;;;11.50;98633.00;;;;16578255;28;20212;-48
2022/11/29 04:08:46;;;;;;;17.70;15.93;;;;;11.60;98623.00;;;;16583046;28;20227;-47
2022/11/29 04:17:26;;;;;;;16.63;14.93;;;;;11.00;98635.00;;;;16578248;28;20297;-47
2022/11/29 04:25:48;;;;;;;17.40;15.60;;;;;11.10;98643.00;;;;16586467;28;20235;-48
2022/11/29 04:34:15;;;;;;;17.37;15.50;;;;;11.10;98644.00;;;;16574240;28;20332;-49
2022/11/29 04:42:38;;;;;;;18.03;15.50;;;;;10.60;98663.00;;;;16549013;28;20254;-48
2022/11/29 04:50:51;;;;;;;16.87;15.10;;;;;11.30;98651.00;;;;16550185;28;20533;-49
2022/11/29 04:58:59;;;;;;;13.97;12.67;;;;;11.30;98658.00;;;;16528287;28;20278;-49
2022/11/29 05:07:08;;;;;;;14.10;12.70;;;;;11.40;98668.00;;;;16532261;28;20454;-50
2022/11/29 05:15:36;;;;;;;12.70;11.50;;;;;11.10;98666.00;;;;16539971;28;20230;-49
2022/11/29 05:23:49;;;;;;;14.90;12.87;;;;;11.50;98670.00;;;;16581640;28;20270;-48
2022/11/29 05:31:56;;;;;;;13.70;12.30;;;;;11.60;98675.00;;;;16560660;28;20242;-48
2022/11/29 05:40:14;;;;;;;12.70;11.50;;;;;11.90;98673.00;;;;16565561;28;20233;-48
2022/11/29 05:48:24;;;;;;;12.10;11.00;;;;;12.10;98675.00;;;;16569578;28;20241;-48
2022/11/29 05:56:36;;;;;;;17.87;16.10;;;;;11.50;98683.00;;;;16587894;28;20310;-47
2022/11/29 06:04:51;;;;;;;15.33;13.80;;;;;12.10;98679.00;;;;16576482;28;20829;-48
2022/11/29 06:13:04;;;;;;;12.37;11.17;;;;;10.80;98698.00;;;;16582668;28;20239;-48
2022/11/29 06:21:15;;;;;;;33.17;29.63;;;;;11.10;98707.00;;;;16581899;28;20223;-48
2022/11/29 06:29:24;;;;;;;16.40;15.00;;;;;11.30;98717.00;;;;16570534;28;20322;-48
2022/11/29 06:37:29;;;;;;;13.17;11.80;;;;;11.50;98717.00;;;;16573552;28;20211;-48
2022/11/29 06:45:34;;;;;;;12.70;11.33;;;;;11.70;98726.00;;;;16568813;28;20243;-49
2022/11/29 06:53:41;;;;;;;10.07;9.07;;;;;12.00;98730.00;;;;16579215;28;20227;-48
2022/11/29 07:01:50;;;;;;;11.30;10.20;;;;;11.90;98733.00;;;;16563065;28;20234;-48
2022/11/29 07:09:57;;;;;;;10.73;9.33;;;;;11.30;98747.00;;;;16571686;28;20222;-48
2022/11/29 07:18:11;;;;;;;9.77;8.83;;;;;10.90;98756.00;;;;16584824;28;20884;-48
2022/11/29 07:26:21;;;;;;;9.20;8.30;;;;;10.90;98762.00;;;;16573700;28;20244;-48
2022/11/29 07:34:36;;;;;;;10.57;9.50;;;;;10.80;98773.00;;;;16576865;28;20213;-49
2022/11/29 07:42:47;;;;;;;11.13;10.03;;;;;11.20;98762.00;;;;16587848;28;20591;-49
2022/11/29 07:50:51;;;;;;;10.67;9.67;;;;;11.20;98778.00;;;;16593739;28;20232;-48
2022/11/29 07:58:53;;;;;;;10.37;9.37;;;;;11.20;98776.00;;;;16573360;28;20197;-48
2022/11/29 08:07:00;;;;;;;12.20;10.43;;;;;11.00;98786.00;;;;16571053;28;20218;-48
2022/11/29 08:15:02;;;;;;;10.07;9.07;;;;;11.00;98786.00;;;;16579625;28;20677;-48
2022/11/29 08:23:06;;;;;;;14.30;12.40;;;;;11.20;98797.00;;;;16575091;28;20238;-48
2022/11/29 08:31:11;;;;;;;13.00;11.80;;;;;11.00;98797.00;;;;16561673;28;20315;-49
2022/11/29 08:39:15;;;;;;;9.43;8.53;;;;;11.30;98799.00;;;;16561040;28;20208;-48
2022/11/29 08:47:35;;;;;;;8.97;8.13;;;;;11.00;98815.00;;;;16553166;28;20238;-49
2022/11/29 08:55:41;;;;;;;9.77;8.80;;;;;10.70;98810.00;;;;16531068;28;20306;-48
2022/11/29 09:04:01;;;;;;;8.80;7.90;;;;;10.70;98815.00;;;;16529217;28;20881;-48
2022/11/29 09:12:07;;;;;;;14.70;9.20;;;;;10.80;98827.00;;;;16543455;28;20232;-47
2022/11/29 09:20:10;;;;;;;10.23;9.33;;;;;10.70;98838.00;;;;16543099;28;20207;-48
2022/11/29 09:28:14;;;;;;;9.60;8.63;;;;;10.60;98834.00;;;;16546388;28;20330;-49
2022/11/29 09:36:18;;;;;;;9.97;8.97;;;;;11.10;98840.00;;;;16597473;28;20226;-48
2022/11/29 09:44:29;;;;;;;10.70;9.60;;;;;11.10;98844.00;;;;16597333;28;20264;-47
2022/11/29 09:52:41;;;;;;;9.10;8.03;;;;;10.80;98856.00;;;;16578572;28;20227;-48
2022/11/29 10:00:48;;;;;;;9.20;8.30;;;;;11.20;98852.00;;;;16566937;28;20208;-48
2022/11/29 10:08:56;;;;;;;15.13;12.70;;;;;11.20;98854.00;;;;16556759;28;20223;-46
2022/11/29 10:17:03;;;;;;;15.87;14.17;;;;;11.30;98849.00;;;;16536566;28;20716;-48
2022/11/29 10:25:09;;;;;;;15.40;13.67;;;;;11.50;98858.00;;;;16538691;28;20239;-47
2022/11/29 10:33:18;;;;;;;15.53;13.83;;;;;11.20;98850.00;;;;16560826;28;20722;-46
2022/11/29 10:41:22;;;;;;;15.50;13.10;;;;;11.70;98852.00;;;;16562437;28;20217;-47
2022/11/29 10:49:28;;;;;;;14.27;12.60;;;;;11.00;98855.00;;;;16549914;28;20255;-47
2022/11/29 10:57:30;;;;;;;18.10;12.03;;;;;11.40;98848.00;;;;16548460;28;20290;-47
2022/11/29 11:05:34;;;;;;;15.00;12.30;;;;;11.30;98848.00;;;;16577499;28;20301;-48
2022/11/29 11:13:39;;;;;;;13.53;12.10;;;;;11.10;98856.00;;;;16594550;28;20237;-47
2022/11/29 11:21:43;;;;;;;11.83;10.73;;;;;11.50;98853.00;;;;16604838;28;20737;-49
2022/11/29 11:29:46;;;;;;;11.50;10.37;;;;;11.00;98866.00;;;;16593860;28;20749;-48
2022/11/29 11:37:57;;;;;;;12.33;11.13;;;;;11.10;98856.00;;;;16584092;28;20222;-47
2022/11/29 11:45:59;;;;;;;14.60;12.40;;;;;11.20;98865.00;;;;16554633;28;20226;-47
2022/11/29 11:54:03;;;;;;;12.07;10.97;;;;;10.90;98875.00;;;;16582839;28;20219;-49
2022/11/29 12:02:25;;;;;;;13.40;12.10;;;;;11.10;98874.00;;;;16544934;28;20223;-49
2022/11/29 12:10:33;;;;;;;13.30;12.00;;;;;11.10;98878.00;;;;16552346;28;20757;-46
2022/11/29 12:18:39;;;;;;;13.37;12.07;;;;;11.00;98887.00;;;;16575059;28;20224;-47
2022/11/29 12:26:43;;;;;;;12.23;11.03;;;;;10.70;98887.00;;;;16552692;28;20219;-48
2022/11/29 12:34:58;;;;;;;12.27;11.13;;;;;10.90;98901.00;;;;16543626;28;20626;-47
2022/11/29 12:43:09;;;;;;;13.37;12.00;;;;;10.90;98898.00;;;;16578152;28;20232;-47
2022/11/29 12:51:18;;;;;;;12.80;11.57;;;;;10.70;98904.00;;;;16575067;28;20603;-47
2022/11/29 12:59:31;;;;;;;12.20;11.00;;;;;10.70;98904.00;;;;16577893;28;20204;-46
2022/11/29 13:07:42;;;;;;;13.50;12.20;;;;;10.90;98903.00;;;;16557638;28;20368;-48
2022/11/29 13:15:54;;;;;;;13.60;11.67;;;;;10.50;98908.00;;;;16592850;28;20302;-46
2022/11/29 13:24:01;;;;;;;12.00;10.80;;;;;10.90;98918.00;;;;16598269;28;20691;-47
2022/11/29 13:32:08;;;;;;;11.30;10.20;;;;;10.60;98922.00;;;;16601332;28;20657;-48
2022/11/29 13:40:20;;;;;;;12.20;11.10;;;;;11.00;98917.00;;;;16589365;28;20206;-48
2022/11/29 13:48:36;;;;;;;13.73;12.33;;;;;11.60;98913.00;;;;16597107;28;20293;-49
2022/11/29 13:56:45;;;;;;;12.17;10.87;;;;;10.80;98930.00;;;;16567823;28;20256;-48
2022/11/29 14:04:49;;;;;;;13.10;11.73;;;;;10.90;98939.00;;;;16598432;28;20712;-47
2022/11/29 14:12:53;;;;;;;13.50;11.70;;;;;10.70;98930.00;;;;16589716;28;20305;-47
2022/11/29 14:20:58;;;;;;;12.97;11.77;;;;;10.40;98944.00;;;;16588483;28;20203;-48
2022/11/29 14:29:00;;;;;;;15.50;13.70;;;;;10.30;98946.00;;;;16599231;28;20274;-46
2022/11/29 14:37:23;;;;;;;15.80;14.20;;;;;10.50;98948.00;;;;16575879;28;20246;-48
2022/11/29 14:45:28;;;;;;;17.03;15.37;;;;;10.40;98956.00;;;;16580847;28;20231;-48
2022/11/29 14:53:35;;;;;;;16.40;14.70;;;;;10.40;98956.00;;;;16576832;28;20231;-47
2022/11/29 15:01:41;;;;;;;14.17;12.93;;;;;10.60;98965.00;;;;16588773;28;20269;-48
2022/11/29 15:09:47;;;;;;;15.30;13.87;;;;;10.60;98967.00;;;;16603173;28;20233;-48
2022/11/29 15:17:54;;;;;;;15.20;13.70;;;;;10.70;98974.00;;;;16590751;28;20222;-47
2022/11/29 15:26:01;;;;;;;15.40;13.97;;;;;10.60;98976.00;;;;16594455;28;20266;-46
2022/11/29 15:34:04;;;;;;;15.87;14.30;;;;;10.80;98981.00;;;;16582974;28;20846;-45
2022/11/29 15:42:14;;;;;;;13.43;12.03;;;;;10.40;98987.00;;;;16584093;28;20277;-47
2022/11/29 15:50:25;;;;;;;13.33;12.13;;;;;10.50;98989.00;;;;16578771;28;20227;-46
2022/11/29 15:58:31;;;;;;;13.00;11.73;;;;;11.00;99000.00;;;;16580585;28;20215;-46
2022/11/29 16:06:39;;;;;;;13.13;11.93;;;;;10.60;99007.00;;;;16566330;28;20228;-47
2022/11/29 16:14:51;;;;;;;13.73;12.50;;;;;10.70;99017.00;;;;16583389;28;20226;-48
2022/11/29 16:23:13;;;;;;;14.43;13.10;;;;;10.30;99015.00;;;;16552823;28;20855;-45
2022/11/29 16:31:18;;;;;;;16.00;14.33;;;;;10.70;99020.00;;;;16581856;28;20365;-49
2022/11/29 16:39:23;;;;;;;15.10;13.60;;;;;11.20;99018.00;;;;16576683;28;20336;-47
2022/11/29 16:47:28;;;;;;;14.50;13.10;;;;;11.10;99035.00;;;;16566565;28;20236;-45
2022/11/29 16:55:31;;;;;;;15.10;13.57;;;;;10.90;99044.00;;;;16581638;28;20221;-45
2022/11/29 17:03:35;;;;;;;13.83;12.43;;;;;10.80;99034.00;;;;16584996;28;20899;-46
2022/11/29 17:11:37;;;;;;;13.63;11.63;;;;;11.40;99033.00;;;;16576014;28;20374;-47
2022/11/29 17:19:41;;;;;;;14.37;12.87;;;;;10.90;99033.00;;;;16572226;28;20702;-47
2022/11/29 17:27:44;;;;;;;15.60;14.00;;;;;10.60;99043.00;;;;16587290;28;20225;-45
2022/11/29 17:35:48;;;;;;;16.53;14.93;;;;;10.50;99054.00;;;;16583363;28;20219;-46
2022/11/29 17:43:51;;;;;;;16.40;13.60;;;;;10.20;99067.00;;;;16568559;28;20283;-48
2022/11/29 17:51:55;;;;;;;18.87;16.07;;;;;10.40;99064.00;;;;16562873;28;20254;-46
2022/11/29 17:59:57;;;;;;;18.83;16.83;;;;;10.60;99059.00;;;;16546364;28;20242;-46
2022/11/29 18:08:03;;;;;;;19.27;17.27;;;;;10.50;99076.00;;;;16549678;28;20322;-46
2022/11/29 18:16:07;;;;;;;20.77;17.23;;;;;10.40;99075.00;;;;16563504;28;20216;-47
2022/11/29 18:24:11;;;;;;;22.00;18.27;;;;;10.60;99090.00;;;;16545659;28;20249;-47
2022/11/29 18:32:14;;;;;;;22.83;18.17;;;;;10.50;99089.00;;;;16563453;28;20246;-47
2022/11/29 18:40:20;;;;;;;28.30;21.70;;;;;10.90;99093.00;;;;16547342;28;20208;-46
2022/11/29 18:48:22;;;;;;;25.23;21.07;;;;;10.80;99110.00;;;;16574390;28;20246;-47
2022/11/29 18:56:28;;;;;;;24.97;20.83;;;;;10.50;99109.00;;;;16580710;28;20559;-46
2022/11/29 19:04:30;;;;;;;31.33;23.60;;;;;10.60;99111.00;;;;16568951;28;20230;-46
2022/11/29 19:12:34;;;;;;;28.40;23.73;;;;;10.70;99104.00;;;;16547313;28;20234;-48
2022/11/29 19:20:37;;;;;;;26.87;21.87;;;;;10.10;99107.00;;;;16550775;28;20211;-47
2022/11/29 19:28:42;;;;;;;31.13;24.87;;;;;10.10;99099.00;;;;16548576;28;20948;-45
2022/11/29 19:36:45;;;;;;;33.27;22.43;;;;;10.20;99115.00;;;;16538577;28;20634;-45
2022/11/29 19:44:49;;;;;;;31.40;23.40;;;;;10.00;99117.00;;;;16577235;28;20226;-46
2022/11/29 19:52:51;;;;;;;33.67;23.83;;;;;10.00;99127.00;;;;16578226;28;20226;-47
2022/11/29 20:00:55;;;;;;;33.73;24.20;;;;;10.50;99131.00;;;;16581424;28;20203;-46
2022/11/29 20:08:58;;;;;;;31.60;23.70;;;;;11.00;99119.00;;;;16570291;28;20729;-47
2022/11/29 20:17:02;;;;;;;30.20;24.20;;;;;10.10;99130.00;;;;16577212;28;20243;-46
2022/11/29 20:25:05;;;;;;;33.10;24.60;;;;;10.70;99130.00;;;;16581193;28;20832;-47
2022/11/29 20:33:15;;;;;;;32.50;23.90;;;;;9.90;99139.00;;;;16576379;28;20211;-46
2022/11/29 20:41:22;;;;;;;32.03;23.60;;;;;9.80;99130.00;;;;16577076;28;20291;-48
2022/11/29 20:49:26;;;;;;;35.63;25.07;;;;;10.00;99141.00;;;;16570798;28;20281;-45
2022/11/29 20:57:29;;;;;;;30.17;22.60;;;;;10.00;99140.00;;;;16589038;28;20219;-45
2022/11/29 21:05:33;;;;;;;31.17;23.90;;;;;10.10;99145.00;;;;16573734;28;20253;-46
2022/11/29 21:13:36;;;;;;;36.70;25.63;;;;;10.10;99144.00;;;;16584625;28;20232;-47
2022/11/29 21:21:45;;;;;;;36.27;27.13;;;;;10.30;99153.00;;;;16554739;28;20219;-48
2022/11/29 21:29:48;;;;;;;33.80;26.37;;;;;9.70;99144.00;;;;16542854;28;20329;-45
2022/11/29 21:37:52;;;;;;;37.60;26.27;;;;;10.40;99134.00;;;;16571267;28;20237;-47
2022/11/29 21:45:56;;;;;;;38.77;27.90;;;;;10.70;99134.00;;;;16541438;28;20812;-47
2022/11/29 21:53:59;;;;;;;40.73;27.20;;;;;10.70;99151.00;;;;16539014;28;20228;-45
2022/11/29 22:02:02;;;;;;;37.80;26.40;;;;;10.30;99150.00;;;;16587076;28;20307;-46
2022/11/29 22:10:07;;;;;;;38.40;26.90;;;;;10.10;99159.00;;;;16589870;28;20776;-45
2022/11/29 22:18:11;;;;;;;39.97;28.93;;;;;9.80;99172.00;;;;16608996;28;20306;-46
2022/11/29 22:26:14;;;;;;;37.67;26.20;;;;;9.70;99168.00;;;;16598358;28;20271;-46
2022/11/29 22:34:17;;;;;;;42.43;28.20;;;;;10.30;99169.00;;;;16597604;28;20611;-46
2022/11/29 22:42:21;;;;;;;46.07;29.30;;;;;10.30;99166.00;;;;16589337;28;20277;-46
2022/11/29 22:50:24;;;;;;;44.80;29.83;;;;;9.70;99166.00;;;;16590816;28;20211;-47
2022/11/29 22:58:28;;;;;;;44.97;29.60;;;;;9.80;99159.00;;;;16588324;28;20301;-46
2022/11/29 23:06:32;;;;;;;47.47;30.70;;;;;9.60;99162.00;;;;16587030;28;20220;-46
2022/11/29 23:14:36;;;;;;;45.60;30.80;;;;;10.20;99163.00;;;;16589567;28;20297;-45
2022/11/29 23:22:38;;;;;;;44.47;31.23;;;;;9.90;99169.00;;;;16591334;28;20278;-44
2022/11/29 23:30:42;;;;;;;45.33;31.40;;;;;10.30;99172.00;;;;16585961;28;20207;-44
2022/11/29 23:38:45;;;;;;;47.53;32.70;;;;;10.30;99175.00;;;;16585670;28;20199;-46
2022/11/29 23:46:49;;;;;;;47.63;33.33;;;;;10.00;99158.00;;;;16586653;28;20223;-47
2022/11/29 23:54:51;;;;;;;47.53;32.83;;;;;10.30;99161.00;;;;16584246;28;20215;-48
